createdAt,value
2017-08-01T00:00:04.327Z,9.13
2017-08-01T00:02:31.873Z,2.67
2017-08-01T00:04:59.431Z,4.07
2017-08-01T00:07:27.013Z,3.27
2017-08-01T00:09:54.585Z,5.30
2017-08-01T00:12:22.168Z,9.23
2017-08-01T00:14:49.754Z,3.10
2017-08-01T00:17:17.307Z,2.43
2017-08-01T00:19:44.875Z,4.40
2017-08-01T00:22:13.239Z,3.10
2017-08-01T00:24:41.520Z,3.03
2017-08-01T00:27:10.017Z,4.33
2017-08-01T00:29:37.654Z,10.90
2017-08-01T00:32:05.207Z,7.90
2017-08-01T00:34:33.417Z,12.63
2017-08-01T00:37:01.779Z,7.37
2017-08-01T00:39:29.371Z,9.00
2017-08-01T00:41:57.205Z,7.37
2017-08-01T00:44:24.852Z,10.93
2017-08-01T00:46:53.281Z,8.83
2017-08-01T00:49:20.883Z,5.97
2017-08-01T00:51:48.495Z,10.00
2017-08-01T00:54:16.107Z,8.80
2017-08-01T00:56:43.674Z,8.87
2017-08-01T00:59:11.244Z,13.17
2017-08-01T01:01:38.794Z,4.43
2017-08-01T01:04:06.353Z,6.00
2017-08-01T01:06:34.229Z,11.20
2017-08-01T01:09:01.787Z,9.60
2017-08-01T01:11:30.101Z,12.13
2017-08-01T01:13:57.708Z,10.63
2017-08-01T01:16:25.446Z,8.83
2017-08-01T01:18:53.900Z,8.90
2017-08-01T01:21:21.469Z,8.50
2017-08-01T01:23:49.019Z,9.80
2017-08-01T01:26:16.590Z,12.50
2017-08-01T01:28:44.195Z,12.90
2017-08-01T01:31:11.777Z,15.80
2017-08-01T01:33:40.166Z,7.87
2017-08-01T01:36:07.748Z,9.00
2017-08-01T01:38:35.318Z,9.97
2017-08-01T01:41:02.878Z,10.87
2017-08-01T01:43:30.515Z,13.63
2017-08-01T01:45:58.088Z,9.13
2017-08-01T01:48:26.086Z,9.20
2017-08-01T01:50:53.690Z,13.57
2017-08-01T01:55:58.974Z,9.20
2017-08-01T01:58:26.569Z,7.00
2017-08-01T02:00:54.127Z,12.67
2017-08-01T02:03:21.725Z,14.50
2017-08-01T02:05:49.321Z,9.73
2017-08-01T02:08:16.940Z,7.57
2017-08-01T02:10:44.896Z,10.70
2017-08-01T02:13:12.479Z,16.50
2017-08-01T02:15:40.083Z,21.83
2017-08-01T02:18:07.668Z,8.67
2017-08-01T02:20:35.238Z,16.13
2017-08-01T02:23:03.605Z,11.57
2017-08-01T02:25:32.133Z,17.50
2017-08-01T02:27:59.672Z,10.40
2017-08-01T02:30:28.022Z,12.17
2017-08-01T02:32:55.600Z,13.57
2017-08-01T02:35:23.163Z,9.40
2017-08-01T02:37:51.502Z,15.77
2017-08-01T02:40:19.108Z,14.37
2017-08-01T02:42:47.202Z,8.90
2017-08-01T02:45:14.783Z,13.30
2017-08-01T02:47:42.384Z,13.33
2017-08-01T02:50:10.624Z,8.00
2017-08-01T02:52:38.785Z,12.30
2017-08-01T02:55:06.363Z,9.53
2017-08-01T02:57:33.924Z,8.63
2017-08-01T03:00:01.486Z,13.20
2017-08-01T03:02:29.055Z,9.47
2017-08-01T03:04:56.636Z,18.70
2017-08-01T03:07:24.958Z,16.27
2017-08-01T03:09:52.557Z,10.40
2017-08-01T03:12:20.119Z,11.43
2017-08-01T03:14:47.673Z,11.10
2017-08-01T03:17:15.267Z,14.33
2017-08-01T03:19:43.582Z,14.10
2017-08-01T03:22:11.174Z,12.13
2017-08-01T03:24:39.580Z,10.40
2017-08-01T03:27:07.185Z,11.47
2017-08-01T03:29:35.564Z,13.63
2017-08-01T03:32:03.142Z,13.67
2017-08-01T03:34:30.710Z,15.63
2017-08-01T03:36:58.258Z,11.40
2017-08-01T03:39:25.824Z,10.83
2017-08-01T03:41:53.398Z,18.17
2017-08-01T03:44:21.008Z,9.13
2017-08-01T03:46:48.586Z,11.73
2017-08-01T03:49:17.039Z,13.60
2017-08-01T03:51:44.610Z,12.37
2017-08-01T03:54:12.194Z,14.57
2017-08-01T03:56:39.775Z,27.80
2017-08-01T03:59:07.329Z,18.77
2017-08-01T04:01:34.929Z,20.73
2017-08-01T04:04:02.544Z,18.67
2017-08-01T04:06:30.102Z,15.80
2017-08-01T04:08:57.724Z,12.53
2017-08-01T04:11:26.243Z,11.23
2017-08-01T04:13:54.318Z,18.80
2017-08-01T04:16:21.918Z,15.03
2017-08-01T04:18:50.434Z,15.03
2017-08-01T04:21:18.747Z,12.63
2017-08-01T04:23:46.328Z,17.93
2017-08-01T04:26:13.889Z,12.33
2017-08-01T04:28:42.788Z,17.80
2017-08-01T04:31:10.456Z,22.67
2017-08-01T04:33:40.676Z,13.60
2017-08-01T04:36:08.236Z,16.47
2017-08-01T04:38:35.911Z,20.10
2017-08-01T04:41:07.425Z,12.17
2017-08-01T04:43:35.793Z,17.13
2017-08-01T04:46:03.823Z,11.57
2017-08-01T04:48:33.661Z,18.40
2017-08-01T04:51:01.831Z,23.00
2017-08-01T04:53:30.242Z,10.77
2017-08-01T04:55:58.395Z,10.13
2017-08-01T04:58:26.085Z,23.43
2017-08-01T05:00:55.700Z,13.30
2017-08-01T05:03:25.926Z,17.43
2017-08-01T05:05:53.480Z,27.17
2017-08-01T05:08:21.037Z,16.67
2017-08-01T05:10:48.592Z,17.17
2017-08-01T05:13:16.119Z,16.17
2017-08-01T05:15:43.670Z,16.93
2017-08-01T05:18:11.988Z,20.80
2017-08-01T05:20:39.516Z,14.80
2017-08-01T05:23:07.060Z,12.40
2017-08-01T05:25:35.398Z,14.13
2017-08-01T05:28:03.035Z,14.83
2017-08-01T05:30:30.579Z,13.60
2017-08-01T05:32:58.154Z,16.40
2017-08-01T05:35:25.694Z,16.90
2017-08-01T05:37:53.256Z,10.70
2017-08-01T05:40:20.834Z,9.23
2017-08-01T05:42:48.386Z,17.13
2017-08-01T05:45:15.916Z,14.47
2017-08-01T05:47:44.239Z,16.63
2017-08-01T05:50:11.764Z,7.00
2017-08-01T05:52:39.310Z,12.30
2017-08-01T05:55:06.868Z,12.67
2017-08-01T05:57:35.189Z,9.10
2017-08-01T06:00:02.725Z,12.40
2017-08-01T06:02:30.309Z,8.40
2017-08-01T06:04:57.843Z,10.23
2017-08-01T06:07:25.382Z,16.63
2017-08-01T06:09:52.968Z,14.03
2017-08-01T06:12:20.515Z,12.03
2017-08-01T06:14:48.058Z,13.83
2017-08-01T06:17:16.400Z,11.70
2017-08-01T06:19:43.936Z,10.10
2017-08-01T06:22:11.464Z,7.67
2017-08-01T06:24:39.034Z,12.13
2017-08-01T06:27:06.582Z,15.07
2017-08-01T06:29:34.164Z,11.43
2017-08-01T06:32:01.735Z,8.93
2017-08-01T06:34:29.388Z,11.77
2017-08-01T06:36:56.929Z,10.33
2017-08-01T06:39:24.516Z,15.03
2017-08-01T06:41:52.062Z,13.93
2017-08-01T06:44:19.616Z,11.00
2017-08-01T06:46:47.190Z,12.40
2017-08-01T06:49:14.713Z,9.97
2017-08-01T06:51:42.303Z,10.87
2017-08-01T06:54:09.866Z,8.10
2017-08-01T06:56:37.392Z,9.80
2017-08-01T06:59:04.949Z,9.20
2017-08-01T07:01:32.523Z,7.33
2017-08-01T07:04:00.070Z,7.50
2017-08-01T07:06:27.610Z,17.00
2017-08-01T07:08:55.946Z,15.40
2017-08-01T07:11:23.486Z,9.37
2017-08-01T07:13:51.030Z,10.93
2017-08-01T07:16:18.584Z,9.60
2017-08-01T07:18:46.134Z,12.23
2017-08-01T07:21:14.442Z,15.93
2017-08-01T07:23:42.013Z,13.43
2017-08-01T07:26:09.554Z,9.97
2017-08-01T07:28:37.104Z,7.83
2017-08-01T07:31:04.659Z,8.23
2017-08-01T07:33:32.251Z,7.90
2017-08-01T07:35:59.781Z,4.60
2017-08-01T07:38:27.351Z,5.50
2017-08-01T07:40:54.894Z,4.37
2017-08-01T07:43:22.446Z,5.93
2017-08-01T07:45:50.760Z,4.03
2017-08-01T07:48:18.302Z,12.00
2017-08-01T07:50:45.866Z,3.47
2017-08-01T07:53:13.424Z,5.10
2017-08-01T07:55:40.955Z,4.53
2017-08-01T07:58:08.885Z,4.10
2017-08-01T08:00:36.450Z,3.67
2017-08-01T08:03:03.984Z,8.10
2017-08-01T08:05:31.518Z,4.73
2017-08-01T08:07:59.105Z,4.43
2017-08-01T08:10:26.650Z,4.60
2017-08-01T08:12:54.194Z,7.13
2017-08-01T08:15:21.765Z,2.90
2017-08-01T08:17:49.292Z,4.40
2017-08-01T08:20:17.613Z,2.40
2017-08-01T08:22:45.163Z,9.73
2017-08-01T08:25:12.698Z,2.73
2017-08-01T08:27:40.256Z,5.53
2017-08-01T08:30:07.826Z,7.13
2017-08-01T08:32:35.355Z,3.27
2017-08-01T08:35:03.669Z,6.03
2017-08-01T08:37:31.236Z,3.23
2017-08-01T08:39:58.778Z,5.80
2017-08-01T08:42:26.318Z,7.23
2017-08-01T08:44:54.664Z,4.57
2017-08-01T08:47:22.206Z,8.83
2017-08-01T08:49:49.742Z,5.47
2017-08-01T08:52:17.310Z,3.20
2017-08-01T08:54:44.851Z,4.90
2017-08-01T08:57:12.428Z,6.63
2017-08-01T08:59:39.991Z,5.30
2017-08-01T09:02:07.530Z,3.30
2017-08-01T09:04:35.078Z,3.13
2017-08-01T09:07:02.646Z,3.83
2017-08-01T09:09:30.200Z,6.67
2017-08-01T09:11:57.744Z,2.73
2017-08-01T09:14:26.092Z,3.47
2017-08-01T09:16:53.642Z,3.67
2017-08-01T09:19:21.200Z,8.70
2017-08-01T09:21:48.751Z,7.90
2017-08-01T09:24:16.290Z,4.53
2017-08-01T09:26:43.815Z,7.23
2017-08-01T09:29:12.165Z,3.93
2017-08-01T09:31:39.721Z,6.03
2017-08-01T09:34:07.354Z,4.33
2017-08-01T09:36:34.926Z,3.87
2017-08-01T09:39:02.474Z,7.60
2017-08-01T09:41:30.000Z,7.40
2017-08-01T09:43:57.585Z,8.60
2017-08-01T09:46:25.117Z,10.60
2017-08-01T09:48:52.648Z,12.90
2017-08-01T09:51:20.200Z,16.20
2017-08-01T09:53:47.738Z,11.93
2017-08-01T09:56:15.286Z,11.93
2017-08-01T09:58:42.856Z,12.20
2017-08-01T10:01:10.417Z,7.37
2017-08-01T10:03:37.973Z,10.47
2017-08-01T10:06:05.553Z,9.07
2017-08-01T10:08:33.490Z,8.40
2017-08-01T10:11:01.053Z,11.00
2017-08-01T10:13:28.604Z,5.67
2017-08-01T10:15:56.146Z,7.03
2017-08-01T10:18:23.671Z,7.13
2017-08-01T10:20:51.215Z,4.67
2017-08-01T10:23:18.740Z,6.70
2017-08-01T10:25:46.286Z,4.03
2017-08-01T10:28:13.850Z,5.57
2017-08-01T10:30:41.395Z,7.03
2017-08-01T10:33:08.949Z,2.97
2017-08-01T10:35:36.505Z,3.30
2017-08-01T10:38:04.816Z,2.57
2017-08-01T10:40:32.340Z,7.70
2017-08-01T10:43:00.666Z,3.30
2017-08-01T10:45:28.220Z,5.50
2017-08-01T10:47:55.762Z,4.00
2017-08-01T10:50:23.349Z,3.07
2017-08-01T10:52:50.884Z,4.20
2017-08-01T10:55:18.412Z,2.47
2017-08-01T10:57:46.738Z,2.57
2017-08-01T11:00:14.279Z,3.13
2017-08-01T11:02:41.808Z,5.97
2017-08-01T11:05:09.392Z,2.70
2017-08-01T11:07:36.953Z,6.80
2017-08-01T11:10:04.494Z,4.20
2017-08-01T11:12:32.056Z,3.00
2017-08-01T11:14:59.585Z,2.50
2017-08-01T11:17:27.894Z,2.50
2017-08-01T11:19:55.574Z,3.93
2017-08-01T11:22:23.099Z,3.70
2017-08-01T11:24:51.421Z,3.00
2017-08-01T11:27:18.990Z,2.87
2017-08-01T11:29:46.549Z,2.80
2017-08-01T11:32:14.189Z,4.37
2017-08-01T11:34:41.758Z,4.30
2017-08-01T11:37:09.298Z,2.53
2017-08-01T11:39:36.856Z,2.40
2017-08-01T11:42:04.423Z,3.10
2017-08-01T11:44:31.956Z,3.67
2017-08-01T11:46:59.487Z,4.20
2017-08-01T11:49:27.049Z,3.47
2017-08-01T11:51:54.600Z,3.00
2017-08-01T11:54:22.181Z,6.33
2017-08-01T11:56:50.490Z,3.60
2017-08-01T11:59:18.030Z,5.60
2017-08-01T12:01:45.602Z,7.20
2017-08-01T12:04:13.154Z,8.57
2017-08-01T12:06:40.705Z,4.83
2017-08-01T12:09:08.263Z,7.10
2017-08-01T12:11:35.828Z,6.17
2017-08-01T12:14:03.409Z,4.53
2017-08-01T12:16:30.946Z,7.60
2017-08-01T12:18:58.480Z,4.10
2017-08-01T12:21:26.824Z,4.60
2017-08-01T12:23:54.370Z,10.60
2017-08-01T12:26:21.952Z,6.80
2017-08-01T12:28:49.490Z,3.53
2017-08-01T12:31:17.038Z,4.73
2017-08-01T12:33:44.609Z,4.47
2017-08-01T12:36:12.151Z,3.03
2017-08-01T12:38:39.695Z,3.87
2017-08-01T12:41:07.258Z,3.50
2017-08-01T12:43:34.807Z,3.50
2017-08-01T12:46:02.352Z,3.17
2017-08-01T12:48:30.690Z,2.90
2017-08-01T12:50:58.248Z,3.30
2017-08-01T12:53:25.793Z,2.80
2017-08-01T12:55:53.362Z,3.10
2017-08-01T12:58:26.760Z,2.50
2017-08-01T13:00:54.326Z,2.50
2017-08-01T13:03:21.866Z,2.70
2017-08-01T13:05:49.424Z,4.77
2017-08-01T13:08:17.012Z,2.80
2017-08-01T13:10:44.536Z,2.83
2017-08-01T13:13:12.082Z,3.40
2017-08-01T13:15:39.631Z,2.10
2017-08-01T13:18:07.956Z,2.30
2017-08-01T13:20:35.538Z,1.87
2017-08-01T13:23:03.082Z,2.80
2017-08-01T13:25:30.636Z,2.63
2017-08-01T13:27:58.202Z,3.20
2017-08-01T13:30:25.759Z,2.30
2017-08-01T13:32:53.298Z,8.83
2017-08-01T13:35:20.872Z,2.40
2017-08-01T13:37:48.424Z,5.83
2017-08-01T13:40:16.420Z,8.90
2017-08-01T13:42:44.045Z,10.83
2017-08-01T13:45:11.571Z,9.50
2017-08-01T13:47:39.914Z,10.47
2017-08-01T13:50:07.554Z,13.50
2017-08-01T13:52:35.098Z,17.57
2017-08-01T13:55:02.655Z,11.50
2017-08-01T13:57:30.213Z,12.20
2017-08-01T13:59:57.766Z,16.00
2017-08-01T14:02:25.336Z,16.90
2017-08-01T14:04:52.882Z,10.30
2017-08-01T14:07:20.464Z,11.13
2017-08-01T14:09:48.010Z,12.77
2017-08-01T14:12:15.676Z,10.60
2017-08-01T14:14:43.263Z,17.77
2017-08-01T14:17:10.827Z,10.83
2017-08-01T14:19:38.370Z,12.97
2017-08-01T14:22:05.951Z,12.87
2017-08-01T14:24:33.480Z,12.37
2017-08-01T14:27:01.008Z,12.17
2017-08-01T14:29:28.579Z,14.00
2017-08-01T14:31:56.122Z,10.10
2017-08-01T14:34:23.672Z,11.57
2017-08-01T14:36:52.010Z,19.23
2017-08-01T14:39:19.540Z,10.60
2017-08-01T14:41:47.104Z,14.37
2017-08-01T14:44:14.692Z,10.27
2017-08-01T14:46:42.242Z,14.30
2017-08-01T14:49:09.796Z,11.57
2017-08-01T14:51:37.362Z,18.00
2017-08-01T14:54:04.920Z,15.30
2017-08-01T14:56:32.512Z,14.10
2017-08-01T14:59:00.926Z,11.80
2017-08-01T15:01:28.451Z,19.50
2017-08-01T15:03:56.781Z,19.73
2017-08-01T15:06:24.332Z,22.77
2017-08-01T15:08:51.874Z,11.50
2017-08-01T15:11:19.552Z,18.33
2017-08-01T15:13:47.116Z,18.27
2017-08-01T15:16:14.676Z,15.93
2017-08-01T15:18:42.248Z,14.20
2017-08-01T15:21:09.820Z,12.43
2017-08-01T15:23:37.370Z,14.33
2017-08-01T15:26:04.944Z,29.83
2017-08-01T15:28:32.494Z,18.87
2017-08-01T15:31:00.052Z,9.20
2017-08-01T15:33:27.607Z,11.70
2017-08-01T15:35:55.141Z,15.83
2017-08-01T15:38:22.710Z,12.27
2017-08-01T15:40:50.241Z,17.13
2017-08-01T15:43:17.768Z,12.83
2017-08-01T15:45:46.088Z,9.40
2017-08-01T15:48:13.653Z,12.63
2017-08-01T15:50:41.207Z,12.77
2017-08-01T15:53:08.775Z,11.77
2017-08-01T15:55:36.336Z,12.87
2017-08-01T15:58:03.997Z,15.80
2017-08-01T16:00:31.542Z,13.07
2017-08-01T16:02:59.117Z,13.20
2017-08-01T16:05:26.685Z,9.67
2017-08-01T16:07:54.216Z,25.23
2017-08-01T16:10:21.758Z,21.40
2017-08-01T16:12:49.331Z,19.40
2017-08-01T16:15:16.882Z,20.13
2017-08-01T16:17:44.444Z,20.17
2017-08-01T16:20:12.046Z,19.83
2017-08-01T16:22:39.612Z,16.10
2017-08-01T16:25:07.139Z,15.67
2017-08-01T16:27:34.711Z,17.50
2017-08-01T16:30:02.370Z,17.47
2017-08-01T16:32:29.899Z,12.77
2017-08-01T16:34:57.469Z,16.13
2017-08-01T16:37:25.028Z,13.23
2017-08-01T16:39:52.605Z,25.47
2017-08-01T16:42:20.164Z,18.03
2017-08-01T16:44:47.729Z,18.00
2017-08-01T16:47:15.274Z,25.10
2017-08-01T16:49:42.846Z,17.13
2017-08-01T16:52:10.390Z,10.80
2017-08-01T16:54:37.937Z,14.67
2017-08-01T16:57:05.519Z,19.30
2017-08-01T16:59:33.077Z,19.53
2017-08-01T17:02:00.639Z,12.37
2017-08-01T17:04:28.195Z,11.07
2017-08-01T17:06:55.742Z,21.50
2017-08-01T17:09:23.281Z,15.73
2017-08-01T17:11:51.622Z,12.70
2017-08-01T17:14:19.256Z,13.30
2017-08-01T17:16:46.814Z,14.97
2017-08-01T17:19:14.382Z,24.83
2017-08-01T17:21:41.908Z,9.37
2017-08-01T17:24:09.444Z,11.60
2017-08-01T17:26:37.872Z,14.93
2017-08-01T17:29:05.436Z,10.77
2017-08-01T17:31:32.982Z,10.67
2017-08-01T17:34:00.554Z,23.03
2017-08-01T17:36:28.105Z,12.63
2017-08-01T17:38:55.657Z,13.47
2017-08-01T17:41:23.248Z,19.87
2017-08-01T17:43:50.795Z,11.90
2017-08-01T17:46:18.327Z,16.73
2017-08-01T17:48:46.670Z,26.83
2017-08-01T17:51:14.216Z,11.03
2017-08-01T17:53:41.748Z,13.13
2017-08-01T17:56:09.334Z,17.17
2017-08-01T17:58:36.892Z,13.70
2017-08-01T18:01:04.454Z,17.70
2017-08-01T18:03:32.008Z,24.07
2017-08-01T18:05:59.562Z,13.80
2017-08-01T18:08:27.124Z,16.03
2017-08-01T18:10:54.706Z,13.20
2017-08-01T18:13:23.028Z,13.70
2017-08-01T18:15:50.589Z,21.97
2017-08-01T18:18:18.144Z,11.87
2017-08-01T18:20:45.804Z,14.93
2017-08-01T18:23:13.365Z,20.00
2017-08-01T18:25:40.948Z,15.37
2017-08-01T18:28:08.494Z,14.07
2017-08-01T18:30:36.038Z,18.40
2017-08-01T18:33:03.610Z,16.63
2017-08-01T18:35:31.140Z,13.43
2017-08-01T18:37:58.690Z,13.40
2017-08-01T18:40:26.243Z,10.43
2017-08-01T18:42:54.566Z,14.83
2017-08-01T18:45:22.096Z,16.13
2017-08-01T18:47:49.670Z,17.13
2017-08-01T18:50:17.230Z,15.93
2017-08-01T18:52:44.790Z,17.43
2017-08-01T18:55:12.358Z,11.03
2017-08-01T18:57:39.923Z,15.70
2017-08-01T19:00:07.814Z,13.83
2017-08-01T19:02:35.394Z,14.30
2017-08-01T19:05:03.706Z,22.03
2017-08-01T19:07:31.262Z,16.97
2017-08-01T19:09:58.836Z,17.07
2017-08-01T19:12:26.378Z,18.03
2017-08-01T19:14:53.934Z,21.20
2017-08-01T19:17:21.506Z,16.83
2017-08-01T19:19:49.036Z,10.90
2017-08-01T19:22:16.578Z,11.40
2017-08-01T19:24:44.167Z,16.00
2017-08-01T19:27:11.729Z,14.63
2017-08-01T19:29:39.264Z,13.40
2017-08-01T19:32:06.820Z,15.63
2017-08-01T19:34:34.366Z,16.13
2017-08-01T19:37:01.900Z,14.13
2017-08-01T19:39:29.512Z,13.83
2017-08-01T19:41:57.081Z,14.47
2017-08-01T19:44:25.050Z,23.20
2017-08-01T19:46:52.622Z,17.37
2017-08-01T19:49:20.151Z,28.17
2017-08-01T19:51:47.702Z,20.57
2017-08-01T19:54:15.275Z,19.30
2017-08-01T19:56:42.804Z,13.60
2017-08-01T19:59:11.100Z,17.13
2017-08-01T20:01:38.696Z,16.73
2017-08-01T20:04:06.253Z,15.30
2017-08-01T20:06:33.904Z,15.80
2017-08-01T20:09:01.456Z,16.70
2017-08-01T20:11:28.998Z,12.67
2017-08-01T20:13:56.546Z,22.03
2017-08-01T20:16:24.139Z,16.73
2017-08-01T20:18:51.669Z,14.30
2017-08-01T20:21:19.214Z,15.77
2017-08-01T20:23:46.800Z,15.03
2017-08-01T20:26:14.471Z,14.80
2017-08-01T20:28:42.017Z,14.97
2017-08-01T20:31:09.585Z,21.50
2017-08-01T20:33:37.120Z,14.93
2017-08-01T20:36:04.720Z,16.57
2017-08-01T20:38:32.280Z,20.70
2017-08-01T20:40:59.929Z,15.37
2017-08-01T20:43:27.460Z,23.30
2017-08-01T20:45:55.052Z,15.30
2017-08-01T20:48:22.607Z,13.60
2017-08-01T20:50:50.154Z,17.03
2017-08-01T20:53:17.741Z,20.10
2017-08-01T20:55:45.294Z,31.27
2017-08-01T20:58:12.846Z,23.70
2017-08-01T21:00:40.421Z,21.03
2017-08-01T21:03:07.970Z,22.40
2017-08-01T21:05:35.526Z,38.73
2017-08-01T21:08:03.545Z,16.00
2017-08-01T21:10:31.895Z,19.03
2017-08-01T21:12:59.475Z,17.93
2017-08-01T21:15:27.062Z,17.50
2017-08-01T21:17:54.613Z,24.03
2017-08-01T21:20:22.183Z,18.40
2017-08-01T21:22:49.868Z,17.70
2017-08-01T21:25:17.437Z,20.63
2017-08-01T21:27:45.012Z,20.40
2017-08-01T21:30:12.604Z,26.77
2017-08-01T21:32:40.929Z,18.53
2017-08-01T21:35:08.478Z,25.73
2017-08-01T21:37:36.040Z,18.73
2017-08-01T21:40:03.591Z,26.90
2017-08-01T21:42:31.150Z,30.37
2017-08-01T21:44:58.713Z,25.97
2017-08-01T21:47:26.249Z,25.10
2017-08-01T21:49:53.780Z,20.13
2017-08-01T21:52:21.368Z,21.00
2017-08-01T21:54:48.942Z,26.60
2017-08-01T21:57:16.479Z,30.63
2017-08-01T21:59:44.040Z,36.50
2017-08-01T22:02:12.368Z,28.80
2017-08-01T22:04:39.940Z,27.73
2017-08-01T22:07:08.312Z,24.90
2017-08-01T22:09:35.877Z,35.20
2017-08-01T22:12:03.452Z,40.00
2017-08-01T22:14:31.829Z,34.87
2017-08-01T22:16:59.392Z,32.13
2017-08-01T22:19:26.958Z,30.50
2017-08-01T22:21:55.328Z,31.37
2017-08-01T22:24:22.892Z,40.50
2017-08-01T22:26:51.224Z,38.93
2017-08-01T22:29:18.821Z,35.07
2017-08-01T22:31:46.384Z,42.83
2017-08-01T22:34:13.949Z,48.67
2017-08-01T22:36:42.304Z,38.70
2017-08-01T22:39:09.864Z,38.87
2017-08-01T22:41:37.451Z,36.10
2017-08-01T22:44:05.876Z,36.90
2017-08-01T22:46:33.440Z,33.00
2017-08-01T22:49:01.012Z,36.10
2017-08-01T22:51:28.600Z,35.60
2017-08-01T22:53:56.164Z,34.00
2017-08-01T22:56:24.492Z,34.57
2017-08-01T22:58:52.085Z,32.10
2017-08-01T23:01:19.652Z,33.87
2017-08-01T23:03:47.220Z,40.17
2017-08-01T23:06:15.580Z,29.77
2017-08-01T23:08:43.209Z,32.87
2017-08-01T23:11:10.780Z,36.47
2017-08-01T23:13:38.369Z,39.00
2017-08-01T23:16:05.937Z,31.87
2017-08-01T23:18:34.268Z,43.80
2017-08-01T23:21:01.860Z,34.87
2017-08-01T23:23:29.429Z,40.80
2017-08-01T23:25:56.996Z,39.40
2017-08-01T23:28:25.357Z,47.30
2017-08-01T23:30:52.916Z,39.47
2017-08-01T23:33:20.488Z,36.97
2017-08-01T23:35:48.844Z,37.57
2017-08-01T23:38:16.416Z,44.40
2017-08-01T23:40:43.980Z,34.43
2017-08-01T23:43:11.569Z,44.53
2017-08-01T23:45:39.145Z,48.03
2017-08-01T23:48:06.709Z,35.77
2017-08-01T23:50:34.296Z,38.37
2017-08-01T23:53:01.861Z,46.03
2017-08-01T23:55:29.424Z,41.77
2017-08-01T23:57:57.012Z,38.30
